Time;durP1;ratioP1;P1;durP2;ratioP2;P2;SDS_P1;SDS_P2;PMS_P1;PMS_P2;Temp;Humidity;BMP_temperature;BMP_pressure;BME280_temperature;BME280_humidity;BME280_pressure;Samples;Min_cycle;Max_cycle;Signal;HPM_P1;HPM_P2
2021/01/05 00:03:09;;;;;;;28.20;11.67;;;;;;;4.01;79.36;100544.63;8600043;33;20231;-72
2021/01/05 00:08:12;;;;;;;23.40;10.00;;;;;;;3.95;79.04;100547.50;8600441;33;20670;-71
2021/01/05 00:13:14;;;;;;;18.43;9.27;;;;;;;3.92;79.15;100540.56;8600026;33;20208;-71
2021/01/05 00:18:17;;;;;;;21.67;9.23;;;;;;;3.96;79.30;100550.09;8600302;33;20195;-71
2021/01/05 00:23:19;;;;;;;23.47;10.20;;;;;;;3.93;79.69;100552.84;8599615;33;20508;-71
2021/01/05 00:28:22;;;;;;;29.93;11.10;;;;;;;3.94;79.66;100546.63;8603291;33;20458;-71
2021/01/05 00:33:25;;;;;;;23.73;10.53;;;;;;;3.93;79.20;100544.06;8604309;33;20735;-71
2021/01/05 00:38:27;;;;;;;20.20;9.93;;;;;;;3.95;79.58;100544.84;8604355;33;20189;-71
2021/01/05 00:43:29;;;;;;;23.30;10.10;;;;;;;3.94;79.07;100548.41;8604289;33;20244;-71
2021/01/05 00:48:33;;;;;;;22.23;10.43;;;;;;;3.96;79.31;100550.09;8604371;33;20664;-71
2021/01/05 00:53:35;;;;;;;22.87;10.63;;;;;;;3.95;79.25;100544.84;8603081;33;20289;-71
2021/01/05 00:58:38;;;;;;;23.80;11.37;;;;;;;3.98;79.62;100553.53;8603384;33;20578;-71
2021/01/05 01:03:41;;;;;;;24.23;10.07;;;;;;;3.98;79.78;100552.69;8579657;33;20181;-71
2021/01/05 01:08:44;;;;;;;26.50;11.17;;;;;;;4.01;79.88;100552.56;8602934;33;20137;-72
2021/01/05 01:13:47;;;;;;;21.97;10.43;;;;;;;3.95;79.92;100553.66;8603562;33;20450;-71
2021/01/05 01:18:51;;;;;;;23.83;10.47;;;;;;;4.01;79.94;100548.13;8579258;33;20292;-71
2021/01/05 01:23:54;;;;;;;25.93;11.50;;;;;;;4.05;79.85;100550.66;8603018;33;20189;-71
2021/01/05 01:28:56;;;;;;;30.33;12.20;;;;;;;4.07;80.16;100551.47;8582676;33;20211;-72
2021/01/05 01:34:00;;;;;;;25.27;10.53;;;;;;;4.06;79.96;100552.38;8610590;33;20561;-72
2021/01/05 01:39:06;;;;;;;34.77;12.60;;;;;;;4.02;79.98;100551.66;8601160;33;20232;-71
2021/01/05 01:44:08;;;;;;;23.90;10.97;;;;;;;4.07;80.10;100551.47;8579107;33;21406;-72
2021/01/05 01:49:13;;;;;;;30.57;11.50;;;;;;;4.03;80.02;100553.34;8602650;33;20215;-71
2021/01/05 01:54:59;;;;;;;25.30;11.07;;;;;;;4.01;80.11;100547.28;8578692;33;21528;-71
2021/01/05 02:00:13;;;;;;;29.70;11.50;;;;;;;4.02;80.16;100546.34;8602212;33;20517;-71
2021/01/05 02:05:33;;;;;;;25.43;10.47;;;;;;;4.03;80.04;100553.34;8602543;33;21437;-71
2021/01/05 02:10:54;;;;;;;20.33;9.93;;;;;;;4.00;80.03;100554.34;8600906;33;20294;-71
2021/01/05 02:16:19;;;;;;;21.47;9.87;;;;;;;3.96;79.84;100547.44;8578633;33;20184;-71
2021/01/05 02:21:28;;;;;;;28.00;10.80;;;;;;;4.02;80.14;100549.00;8577625;33;20199;-71
2021/01/05 02:26:43;;;;;;;30.80;11.10;;;;;;;4.03;79.98;100547.22;8577738;33;20197;-72
2021/01/05 02:32:16;;;;;;;33.47;12.63;;;;;;;4.04;80.30;100547.16;8600388;33;20284;-71
2021/01/05 02:37:38;;;;;;;28.93;11.37;;;;;;;4.07;80.40;100554.13;8600067;33;20531;-72
2021/01/05 02:43:42;;;;;;;24.17;10.10;;;;;;;4.01;80.04;100556.06;8600885;33;21434;-71
2021/01/05 02:49:20;;;;;;;31.77;11.50;;;;;;;4.04;80.24;100552.44;8572229;33;20853;-72
2021/01/05 02:55:20;;;;;;;28.73;12.47;;;;;;;4.08;80.39;100542.63;8601169;33;20180;-71
2021/01/05 03:01:19;;;;;;;24.13;10.00;;;;;;;4.05;79.91;100548.88;8600244;33;20359;-71
2021/01/05 03:06:45;;;;;;;30.73;11.53;;;;;;;4.03;79.97;100548.06;8601218;33;20596;-71
2021/01/05 03:12:30;;;;;;;26.03;11.83;;;;;;;3.95;80.09;100547.50;8600075;33;20758;-71
2021/01/05 03:17:59;;;;;;;31.37;11.30;;;;;;;3.93;80.07;100542.28;8600774;33;20188;-72
2021/01/05 03:23:31;;;;;;;25.63;10.73;;;;;;;3.95;80.19;100552.78;8568121;33;20598;-71
2021/01/05 03:28:52;;;;;;;29.30;11.70;;;;;;;3.93;80.33;100547.56;8600061;33;20426;-72
2021/01/05 03:34:15;;;;;;;23.43;10.67;;;;;;;3.98;80.29;100552.69;8600447;33;20317;-71
2021/01/05 03:39:47;;;;;;;29.33;11.27;;;;;;;3.97;80.16;100548.31;8503105;33;20251;-71
2021/01/05 03:45:31;;;;;;;26.13;10.93;;;;;;;4.01;80.25;100552.56;8372476;34;20541;-71
2021/01/05 03:51:00;;;;;;;25.40;10.07;;;;;;;3.97;79.92;100553.59;8553690;33;20180;-71
2021/01/05 03:56:22;;;;;;;23.27;11.07;;;;;;;4.00;79.89;100551.72;8599787;33;20189;-71
2021/01/05 04:01:51;;;;;;;26.20;10.97;;;;;;;3.96;79.65;100547.44;8598819;33;20279;-71
2021/01/05 04:06:54;;;;;;;27.40;10.10;;;;;;;3.95;79.64;100548.38;8598652;33;21530;-71
2021/01/05 04:11:56;;;;;;;31.67;11.90;;;;;;;3.94;79.71;100541.34;8599521;33;20378;-71
2021/01/05 04:16:59;;;;;;;25.07;10.10;;;;;;;4.00;79.90;100541.13;8599061;33;20479;-71
2021/01/05 04:22:02;;;;;;;25.43;10.63;;;;;;;3.98;79.82;100542.97;8598944;33;20146;-71
2021/01/05 04:27:07;;;;;;;28.73;10.50;;;;;;;3.94;79.72;100538.69;8599105;33;20222;-71
2021/01/05 04:32:11;;;;;;;27.93;10.50;;;;;;;3.94;79.70;100527.28;8598842;33;20184;-70
2021/01/05 04:37:14;;;;;;;32.47;11.20;;;;;;;3.92;79.77;100537.91;8599229;33;20197;-70
2021/01/05 04:42:22;;;;;;;26.50;11.43;;;;;;;3.83;79.76;100535.59;8598070;33;21957;-71
2021/01/05 04:47:40;;;;;;;29.27;10.87;;;;;;;3.90;80.09;100534.47;8598856;33;20244;-72
2021/01/05 04:52:55;;;;;;;27.83;11.70;;;;;;;3.94;79.99;100535.19;8598220;33;20145;-72
2021/01/05 04:58:08;;;;;;;24.47;10.87;;;;;;;3.99;80.16;100539.41;8597942;33;21999;-71
2021/01/05 05:03:31;;;;;;;27.87;11.13;;;;;;;4.03;80.11;100541.94;8598494;33;22072;-71
2021/01/05 05:08:47;;;;;;;28.23;11.00;;;;;;;4.00;80.18;100538.50;8599002;33;20181;-71
2021/01/05 05:13:57;;;;;;;28.27;10.43;;;;;;;4.02;80.16;100535.78;8600654;33;20760;-70
2021/01/05 05:19:20;;;;;;;29.90;11.70;;;;;;;4.00;80.19;100545.53;8603122;33;20723;-71
2021/01/05 05:24:39;;;;;;;28.53;9.87;;;;;;;3.94;80.05;100544.00;8602870;33;20363;-71
2021/01/05 05:29:45;;;;;;;20.27;8.70;;;;;;;3.94;80.04;100545.78;8602730;33;20280;-71
2021/01/05 05:34:56;;;;;;;28.23;10.33;;;;;;;3.96;80.06;100552.72;8602830;33;20152;-71
2021/01/05 05:40:22;;;;;;;30.40;11.50;;;;;;;4.01;80.02;100552.56;8602247;33;20231;-71
2021/01/05 05:45:29;;;;;;;26.93;10.17;;;;;;;4.03;80.31;100565.72;8601731;33;20192;-73
2021/01/05 05:50:41;;;;;;;30.43;10.80;;;;;;;4.05;80.16;100558.59;8545940;33;20593;-71
2021/01/05 05:55:52;;;;;;;30.00;9.93;;;;;;;4.00;79.80;100559.66;8522551;33;21409;-72
2021/01/05 06:00:57;;;;;;;22.03;10.40;;;;;;;4.04;80.32;100552.44;8545784;33;20186;-72
2021/01/05 06:06:00;;;;;;;30.13;10.17;;;;;;;4.10;80.37;100551.38;8546220;33;20820;-72
2021/01/05 06:11:03;;;;;;;30.70;11.90;;;;;;;4.06;80.24;100552.38;8546114;33;20289;-71
2021/01/05 06:16:06;;;;;;;29.47;11.03;;;;;;;4.07;80.26;100556.78;8546662;33;20713;-71
2021/01/05 06:21:09;;;;;;;31.40;11.17;;;;;;;4.10;80.43;100551.38;8545946;33;20470;-72
2021/01/05 06:26:16;;;;;;;28.13;11.63;;;;;;;4.07;80.48;100552.34;8545787;33;20190;-71
2021/01/05 06:31:18;;;;;;;25.53;10.07;;;;;;;4.04;80.33;100551.59;8545969;33;20264;-71
2021/01/05 06:36:20;;;;;;;29.33;11.57;;;;;;;3.99;80.13;100564.97;8545653;33;20186;-71
2021/01/05 06:41:24;;;;;;;26.93;10.80;;;;;;;4.03;80.16;100558.66;8545263;33;20132;-71
2021/01/05 06:46:26;;;;;;;29.43;11.13;;;;;;;4.10;80.56;100576.03;8545711;33;20186;-71
2021/01/05 06:51:28;;;;;;;28.60;11.10;;;;;;;4.13;80.35;100582.97;8544653;33;20182;-71
2021/01/05 06:56:31;;;;;;;27.70;12.03;;;;;;;4.11;80.18;100579.50;8545705;33;20181;-71
2021/01/05 07:01:39;;;;;;;36.17;11.57;;;;;;;4.08;80.59;100579.63;8520089;33;20674;-71
2021/01/05 07:06:42;;;;;;;36.92;12.40;;;;;;;4.09;80.72;100584.88;8592535;33;20548;-71
2021/01/05 07:11:45;;;;;;;31.70;12.03;;;;;;;4.11;80.59;100590.94;8600326;33;20157;-72
2021/01/05 07:16:48;;;;;;;36.30;13.80;;;;;;;4.13;80.58;100583.84;8600702;33;20487;-71
2021/01/05 07:21:50;;;;;;;32.67;13.03;;;;;;;4.05;80.52;100585.03;8600107;33;20246;-71
2021/01/05 07:26:54;;;;;;;29.57;12.10;;;;;;;4.14;80.58;100589.97;8600284;33;20342;-72
2021/01/05 07:31:57;;;;;;;35.93;12.10;;;;;;;4.13;80.37;100599.69;8600235;33;20195;-71
2021/01/05 07:37:02;;;;;;;37.53;13.07;;;;;;;4.09;80.12;100598.09;8599762;33;20335;-70
2021/01/05 07:42:19;;;;;;;35.93;13.17;;;;;;;4.10;79.78;100601.59;8600009;33;20212;-71
2021/01/05 07:47:23;;;;;;;30.47;12.53;;;;;;;4.08;80.51;100614.88;8599814;33;20736;-70
2021/01/05 07:52:35;;;;;;;5.43;3.03;;;;;;;4.13;80.37;100612.06;8600744;33;20693;-71
2021/01/05 07:57:39;;;;;;;39.37;12.83;;;;;;;4.50;80.55;100614.22;8598525;33;20185;-71
2021/01/05 08:02:41;;;;;;;39.28;14.55;;;;;;;4.70;80.40;100617.88;8597386;33;20232;-71
2021/01/05 08:07:44;;;;;;;45.83;15.67;;;;;;;4.77;80.01;100607.00;8599749;33;20189;-70
2021/01/05 08:12:48;;;;;;;35.03;14.13;;;;;;;4.81;79.80;100618.31;8599570;33;20222;-70
2021/01/05 08:17:51;;;;;;;29.35;12.88;;;;;;;5.00;79.65;100618.44;8598591;33;21773;-71
2021/01/05 08:22:54;;;;;;;28.55;11.00;;;;;;;4.97;78.10;100619.44;8598366;33;20193;-70
2021/01/05 08:27:59;;;;;;;21.70;9.43;;;;;;;4.96;78.36;100617.69;8599263;33;20158;-71
2021/01/05 08:33:05;;;;;;;21.05;8.35;;;;;;;4.77;78.01;100622.00;8598391;33;20689;-71
2021/01/05 08:38:07;;;;;;;24.33;10.40;;;;;;;4.53;78.43;100624.69;8598258;33;20202;-71
2021/01/05 08:43:10;;;;;;;21.90;9.63;;;;;;;4.50;78.84;100634.50;8598528;33;20659;-70
2021/01/05 08:48:13;;;;;;;21.85;9.48;;;;;;;4.51;78.67;100630.94;8576317;33;20854;-70
2021/01/05 08:53:15;;;;;;;21.50;9.10;;;;;;;4.51;79.20;100633.59;8602093;33;20181;-70
2021/01/05 08:58:18;;;;;;;23.40;10.20;;;;;;;4.50;79.02;100634.50;8602980;33;20308;-70
2021/01/05 09:03:21;;;;;;;29.30;11.00;;;;;;;4.50;78.75;100653.00;8602548;33;20145;-70
2021/01/05 09:08:26;;;;;;;26.55;11.10;;;;;;;4.36;78.67;100645.59;8603178;33;20150;-70
2021/01/05 09:13:29;;;;;;;26.37;9.93;;;;;;;4.44;78.96;100646.16;8602713;33;20183;-70
2021/01/05 09:18:31;;;;;;;24.40;10.17;;;;;;;4.48;78.91;100637.22;8602255;33;20187;-70
2021/01/05 09:23:33;;;;;;;27.40;11.43;;;;;;;4.46;78.64;100646.97;8602883;33;20223;-71
2021/01/05 09:28:37;;;;;;;28.37;10.73;;;;;;;4.47;78.53;100643.44;8602949;33;21026;-70
2021/01/05 09:33:39;;;;;;;26.57;11.87;;;;;;;4.51;78.93;100639.75;8602471;33;20145;-70
2021/01/05 09:38:43;;;;;;;25.00;10.47;;;;;;;4.55;78.61;100645.78;8602724;33;20660;-71
2021/01/05 09:43:47;;;;;;;29.13;11.53;;;;;;;4.61;78.61;100648.22;8544197;33;20721;-70
2021/01/05 09:48:50;;;;;;;24.20;9.88;;;;;;;4.63;78.58;100639.25;8545647;33;20333;-70
2021/01/05 09:53:53;;;;;;;28.87;13.03;;;;;;;4.57;77.92;100652.72;8544980;33;20230;-70
2021/01/05 09:58:56;;;;;;;22.27;10.13;;;;;;;4.56;77.76;100651.03;8544498;33;20283;-70
2021/01/05 10:03:59;;;;;;;24.67;9.70;;;;;;;4.53;77.64;100637.91;8567475;33;21379;-70
2021/01/05 10:09:08;;;;;;;30.90;11.30;;;;;;;4.55;77.28;100641.38;8601650;33;20477;-70
2021/01/05 10:14:15;;;;;;;23.80;9.13;;;;;;;4.63;77.47;100639.25;8601433;33;20185;-71
2021/01/05 10:19:17;;;;;;;25.43;10.20;;;;;;;4.66;77.34;100644.47;8600994;33;21128;-70
2021/01/05 10:24:21;;;;;;;25.40;10.63;;;;;;;4.67;77.25;100638.22;8601019;33;20444;-70
2021/01/05 10:29:25;;;;;;;22.87;10.33;;;;;;;4.66;77.22;100651.50;8598265;33;20657;-70
2021/01/05 10:34:27;;;;;;;27.70;10.67;;;;;;;4.75;77.48;100639.75;8599539;33;20540;-71
2021/01/05 10:39:30;;;;;;;25.67;12.27;;;;;;;4.77;77.19;100641.41;8598216;33;20289;-70
2021/01/05 10:44:34;;;;;;;26.53;12.00;;;;;;;4.73;76.83;100645.06;8574561;33;20146;-70
2021/01/05 10:49:37;;;;;;;31.17;13.07;;;;;;;4.76;77.03;100644.97;8600321;33;20204;-69
2021/01/05 10:54:39;;;;;;;25.63;12.40;;;;;;;4.78;77.21;100637.81;8596052;33;20332;-70
2021/01/05 10:59:44;;;;;;;27.03;11.37;;;;;;;4.76;77.03;100638.81;8603526;33;20211;-70
2021/01/05 11:04:46;;;;;;;35.77;14.60;;;;;;;4.83;76.96;100637.66;8590443;33;20223;-70
2021/01/05 11:09:49;;;;;;;30.03;12.30;;;;;;;4.89;76.55;100640.06;8599915;33;20491;-70
2021/01/05 11:14:53;;;;;;;33.07;15.07;;;;;;;4.93;77.23;100633.69;8576515;33;20185;-71
2021/01/05 11:19:55;;;;;;;30.53;12.77;;;;;;;4.88;76.86;100633.91;8598632;33;20208;-70
2021/01/05 11:24:58;;;;;;;26.60;11.30;;;;;;;4.92;76.84;100626.69;8594311;33;20290;-70
2021/01/05 11:30:01;;;;;;;31.70;13.20;;;;;;;4.95;76.77;100620.41;8599673;33;20697;-70
2021/01/05 11:35:06;;;;;;;36.40;13.07;;;;;;;4.98;76.60;100613.19;8600286;33;20548;-70
2021/01/05 11:40:10;;;;;;;29.30;13.13;;;;;;;4.95;76.36;100610.69;8598667;33;20196;-70
2021/01/05 11:45:16;;;;;;;32.90;12.50;;;;;;;5.04;76.77;100598.84;8599797;33;20197;-70
2021/01/05 11:50:19;;;;;;;31.43;12.47;;;;;;;5.12;76.62;100599.41;8598348;33;21775;-70
2021/01/05 11:55:22;;;;;;;36.00;13.83;;;;;;;5.15;76.37;100593.97;8598833;33;20242;-70
2021/01/05 12:00:25;;;;;;;29.57;11.33;;;;;;;5.12;76.12;100584.38;8597531;33;20149;-70
2021/01/05 12:05:27;;;;;;;26.17;11.03;;;;;;;5.05;75.85;100590.00;8596029;33;20245;-70
2021/01/05 12:10:29;;;;;;;26.20;11.17;;;;;;;5.10;75.89;100580.94;8573326;33;20671;-70
2021/01/05 12:15:33;;;;;;;25.83;11.23;;;;;;;5.10;75.35;100574.75;8597902;33;21528;-70
2021/01/05 12:20:35;;;;;;;27.60;11.87;;;;;;;5.03;75.67;100568.00;8598826;33;20137;-70
2021/01/05 12:25:39;;;;;;;26.50;11.23;;;;;;;5.04;75.89;100564.41;8604416;33;20760;-70
2021/01/05 12:30:43;;;;;;;31.65;12.20;;;;;;;5.01;76.32;100565.41;8604068;33;22141;-70
2021/01/05 12:35:45;;;;;;;28.93;11.63;;;;;;;4.96;76.32;100567.38;8604135;33;20189;-70
2021/01/05 12:40:49;;;;;;;25.07;11.63;;;;;;;4.93;76.62;100566.66;8579664;33;20437;-70
2021/01/05 12:45:53;;;;;;;23.80;9.93;;;;;;;4.89;77.05;100568.56;8603769;33;20157;-69
2021/01/05 12:50:55;;;;;;;25.65;11.77;;;;;;;4.91;76.88;100579.97;8603736;33;20662;-70
2021/01/05 12:55:58;;;;;;;30.77;11.67;;;;;;;4.88;77.04;100572.13;8603654;33;20574;-70
2021/01/05 13:01:01;;;;;;;24.53;11.13;;;;;;;4.80;76.98;100576.84;8603526;33;20681;-69
2021/01/05 13:06:03;;;;;;;26.67;10.80;;;;;;;4.63;78.05;100578.38;8579093;33;20212;-70
2021/01/05 13:11:07;;;;;;;28.60;11.80;;;;;;;4.81;78.35;100579.47;8603556;33;20630;-70
2021/01/05 13:16:17;;;;;;;26.47;11.80;;;;;;;4.91;78.42;100569.38;8603129;33;20195;-70
2021/01/05 13:21:28;;;;;;;25.05;10.60;;;;;;;4.97;78.44;100573.56;8602769;33;21544;-69
2021/01/05 13:26:30;;;;;;;28.10;11.40;;;;;;;4.89;78.23;100565.91;8602993;33;20189;-70
2021/01/05 13:31:42;;;;;;;25.03;10.17;;;;;;;4.85;78.44;100577.53;8602576;33;20235;-73
2021/01/05 13:36:45;;;;;;;27.70;12.47;;;;;;;4.78;78.48;100570.78;8601886;33;20175;-71
2021/01/05 13:41:47;;;;;;;30.23;12.00;;;;;;;4.70;78.92;100573.72;8601575;33;20211;-70
2021/01/05 13:46:56;;;;;;;26.43;11.53;;;;;;;4.77;79.01;100579.63;8602257;33;20228;-71
2021/01/05 13:52:07;;;;;;;28.27;12.57;;;;;;;4.77;78.97;100575.22;8602080;33;20146;-70
2021/01/05 13:57:15;;;;;;;26.90;11.57;;;;;;;4.83;79.25;100588.22;8606803;33;20196;-70
2021/01/05 14:02:22;;;;;;;30.60;12.00;;;;;;;4.93;78.90;100590.47;8601970;33;20216;-71
2021/01/05 14:07:25;;;;;;;33.10;12.13;;;;;;;4.83;78.66;100584.72;8601329;33;20692;-70
2021/01/05 14:12:29;;;;;;;26.53;12.27;;;;;;;4.80;79.14;100582.16;8599936;33;20740;-71
2021/01/05 14:17:32;;;;;;;31.27;13.17;;;;;;;4.85;78.99;100594.31;8600045;33;20698;-71
2021/01/05 14:22:34;;;;;;;31.93;12.87;;;;;;;4.88;79.06;100588.00;8576074;33;20181;-70
2021/01/05 14:27:36;;;;;;;29.80;12.33;;;;;;;4.92;78.91;100578.19;8599585;33;20216;-71
2021/01/05 14:32:40;;;;;;;30.87;12.10;;;;;;;4.93;78.60;100580.75;8572285;33;21201;-71
2021/01/05 14:37:42;;;;;;;27.23;12.10;;;;;;;4.90;78.55;100587.03;8597811;33;20228;-70
2021/01/05 14:42:45;;;;;;;35.63;13.93;;;;;;;4.94;78.33;100574.53;8599308;33;20671;-70
2021/01/05 14:47:50;;;;;;;34.97;15.63;;;;;;;4.92;77.97;100579.03;8599349;33;20682;-70
2021/01/05 14:52:54;;;;;;;30.60;14.67;;;;;;;5.03;78.02;100576.81;8599481;33;20161;-70
2021/01/05 14:57:56;;;;;;;28.42;14.02;;;;;;;4.98;77.64;100580.56;8599954;33;20180;-70
2021/01/05 15:02:59;;;;;;;28.27;12.00;;;;;;;4.96;77.63;100580.63;8599457;33;20548;-71
2021/01/05 15:08:02;;;;;;;26.23;12.07;;;;;;;4.96;77.66;100579.75;8599543;33;20805;-70
2021/01/05 15:13:04;;;;;;;30.95;14.07;;;;;;;4.93;77.74;100587.84;8599293;33;20189;-70
2021/01/05 15:18:08;;;;;;;26.05;11.70;;;;;;;4.88;78.11;100585.34;8599778;33;20252;-70
2021/01/05 15:23:10;;;;;;;28.03;12.13;;;;;;;4.88;78.18;100586.25;8598608;33;20642;-70
2021/01/05 15:28:13;;;;;;;29.03;12.93;;;;;;;4.88;78.04;100585.34;8598467;33;20977;-70
2021/01/05 15:33:16;;;;;;;20.35;10.35;;;;;;;4.84;78.40;100591.72;8599058;33;20141;-71
2021/01/05 15:38:18;;;;;;;15.93;8.60;;;;;;;4.77;78.60;100607.00;8598647;33;20209;-70
2021/01/05 15:43:21;;;;;;;23.03;9.83;;;;;;;4.78;78.87;100591.97;8598820;33;20399;-71
2021/01/05 15:48:26;;;;;;;22.57;10.23;;;;;;;4.81;79.13;100600.63;8597942;33;20288;-71
2021/01/05 15:53:29;;;;;;;19.50;10.48;;;;;;;4.83;79.31;100595.28;8598271;33;20252;-71
2021/01/05 15:58:31;;;;;;;26.00;11.60;;;;;;;4.86;79.41;100592.53;8597188;33;20703;-71
2021/01/05 16:03:35;;;;;;;22.57;11.00;;;;;;;4.80;79.68;100587.44;8598452;33;20457;-71
2021/01/05 16:08:37;;;;;;;31.70;14.83;;;;;;;4.93;80.23;100593.97;8598568;33;20197;-71
2021/01/05 16:13:39;;;;;;;21.60;10.50;;;;;;;4.95;79.97;100596.59;8597895;33;20154;-72
2021/01/05 16:18:42;;;;;;;18.57;9.93;;;;;;;4.95;79.91;100591.28;8550697;33;20251;-71
2021/01/05 16:23:45;;;;;;;21.20;9.40;;;;;;;4.92;80.09;100591.41;8596822;33;20166;-71
2021/01/05 16:28:47;;;;;;;23.07;9.17;;;;;;;4.97;80.07;100587.66;8597024;33;20181;-72
2021/01/05 16:33:50;;;;;;;20.13;9.90;;;;;;;5.01;80.36;100593.69;8596593;33;20518;-71
2021/01/05 16:38:54;;;;;;;19.97;9.97;;;;;;;5.03;80.37;100587.41;8597275;33;20276;-71
2021/01/05 16:43:57;;;;;;;18.33;9.50;;;;;;;5.03;80.54;100587.41;8597852;33;20157;-71
2021/01/05 16:49:00;;;;;;;24.13;10.43;;;;;;;5.07;80.65;100596.06;8597383;33;20193;-71
2021/01/05 16:54:04;;;;;;;28.00;11.33;;;;;;;5.08;80.87;100596.03;8597210;33;20193;-71
2021/01/05 16:59:08;;;;;;;20.17;9.32;;;;;;;5.08;80.90;100592.53;8572875;33;20227;-72
2021/01/05 17:04:11;;;;;;;29.42;10.93;;;;;;;5.07;81.10;100586.38;8598020;33;20307;-71
2021/01/05 17:09:17;;;;;;;26.57;11.00;;;;;;;5.11;81.19;100582.66;8600997;33;20565;-71
2021/01/05 17:14:19;;;;;;;22.25;8.98;;;;;;;5.15;81.45;100583.38;8603003;33;20907;-71
2021/01/05 17:19:22;;;;;;;22.23;9.10;;;;;;;5.18;81.30;100574.44;8601332;33;20197;-71
2021/01/05 17:24:24;;;;;;;19.00;9.87;;;;;;;5.20;81.41;100581.41;8601687;33;20185;-70
2021/01/05 17:29:27;;;;;;;15.43;8.60;;;;;;;5.21;81.68;100579.63;8601880;33;20170;-71
2021/01/05 17:34:30;;;;;;;15.07;7.90;;;;;;;5.21;81.58;100588.44;8602344;33;20189;-71
2021/01/05 17:39:32;;;;;;;14.25;8.50;;;;;;;5.23;81.72;100588.38;8602119;33;20196;-71
2021/01/05 17:44:35;;;;;;;18.30;8.82;;;;;;;5.26;81.99;100596.19;8603087;33;20469;-71
2021/01/05 17:49:38;;;;;;;14.60;7.33;;;;;;;5.27;81.89;100592.63;8643401;33;21894;-71
2021/01/05 17:54:40;;;;;;;14.35;7.05;;;;;;;5.28;82.00;100603.16;8612012;33;20192;-71
2021/01/05 17:59:43;;;;;;;15.67;7.23;;;;;;;5.33;81.98;100597.66;8601641;33;20162;-71
2021/01/05 18:04:46;;;;;;;13.27;7.03;;;;;;;5.36;82.17;100600.19;8591214;33;20188;-71
2021/01/05 18:09:48;;;;;;;16.73;6.67;;;;;;;5.35;82.03;100604.63;8601580;33;20207;-72
2021/01/05 18:14:51;;;;;;;12.65;8.05;;;;;;;5.35;82.31;100593.16;8601395;33;20181;-72
2021/01/05 18:19:54;;;;;;;13.20;6.00;;;;;;;5.34;82.43;100604.66;8600899;33;20192;-71
2021/01/05 18:24:57;;;;;;;22.30;9.32;;;;;;;5.37;82.41;100607.19;8599698;33;21778;-70
2021/01/05 18:30:00;;;;;;;20.13;8.07;;;;;;;5.36;82.34;100605.47;8600621;33;20739;-71
2021/01/05 18:35:05;;;;;;;13.82;7.22;;;;;;;5.35;82.52;100606.41;8599953;33;20203;-70
2021/01/05 18:40:13;;;;;;;13.88;6.03;;;;;;;5.37;82.52;100601.88;8543745;33;20592;-71
2021/01/05 18:45:16;;;;;;;13.15;7.50;;;;;;;5.40;82.60;100604.41;8586885;33;20693;-71
2021/01/05 18:50:22;;;;;;;16.97;7.53;;;;;;;5.43;82.64;100603.41;8600197;33;20160;-71
2021/01/05 18:55:27;;;;;;;12.20;6.75;;;;;;;5.45;82.67;100596.28;8600566;33;20642;-70
2021/01/05 19:00:32;;;;;;;12.70;6.07;;;;;;;5.45;82.70;100597.13;8599886;33;20222;-70
2021/01/05 19:05:37;;;;;;;16.27;6.17;;;;;;;5.51;82.76;100603.97;8576762;33;20272;-71
2021/01/05 19:10:43;;;;;;;11.95;6.10;;;;;;;5.50;82.70;100595.16;8599779;33;20698;-71
2021/01/05 19:15:46;;;;;;;12.00;5.25;;;;;;;5.52;82.79;100600.41;8600363;33;20493;-71
2021/01/05 19:20:49;;;;;;;10.40;6.00;;;;;;;5.52;82.80;100593.31;8599787;33;20161;-71
2021/01/05 19:25:51;;;;;;;10.30;5.40;;;;;;;5.54;82.82;100588.81;8599338;33;20189;-71
2021/01/05 19:30:54;;;;;;;8.85;5.50;;;;;;;5.57;82.66;100587.81;8595728;33;20562;-71
2021/01/05 19:35:58;;;;;;;7.80;4.75;;;;;;;5.52;82.75;100581.84;8599457;33;20185;-71
2021/01/05 19:41:01;;;;;;;7.97;4.78;;;;;;;5.54;82.84;100582.66;8598978;33;20195;-72
2021/01/05 19:46:06;;;;;;;15.75;6.97;;;;;;;5.55;83.00;100589.66;8598207;33;20645;-71
2021/01/05 19:51:10;;;;;;;18.27;10.45;;;;;;;5.52;82.83;100581.84;8598446;33;20266;-71
2021/01/05 19:56:12;;;;;;;12.20;7.03;;;;;;;5.54;82.68;100583.50;8597650;33;20200;-71
2021/01/05 20:01:15;;;;;;;11.95;7.05;;;;;;;5.54;82.69;100569.41;8593681;33;20457;-71
2021/01/05 20:06:22;;;;;;;6.97;4.65;;;;;;;5.54;82.28;100569.41;8608618;33;20197;-70
2021/01/05 20:11:27;;;;;;;9.10;5.90;;;;;;;5.57;82.76;100566.63;8604514;33;20256;-72
2021/01/05 20:16:30;;;;;;;11.35;4.95;;;;;;;5.56;82.51;100564.88;8600477;33;20536;-72
2021/01/05 20:21:33;;;;;;;8.85;4.40;;;;;;;5.52;82.64;100566.81;8598865;33;20177;-71
2021/01/05 20:26:35;;;;;;;6.38;4.45;;;;;;;5.54;82.68;100564.97;8575117;33;20207;-72
2021/01/05 20:31:39;;;;;;;13.40;5.60;;;;;;;5.54;82.60;100570.25;8598640;33;20793;-71
2021/01/05 20:36:46;;;;;;;9.52;5.90;;;;;;;5.55;82.61;100571.13;8598885;33;20280;-71
2021/01/05 20:41:48;;;;;;;7.82;4.57;;;;;;;5.49;82.53;100566.94;8598407;33;20195;-71
2021/01/05 20:46:54;;;;;;;9.75;5.00;;;;;;;5.52;82.56;100560.66;8579121;33;20258;-71
2021/01/05 20:51:58;;;;;;;10.68;4.70;;;;;;;5.55;82.59;100565.81;8603431;33;20132;-71
2021/01/05 20:57:00;;;;;;;11.07;5.30;;;;;;;5.57;82.56;100571.91;8578780;33;21061;-71
2021/01/05 21:02:03;;;;;;;10.57;5.45;;;;;;;5.54;82.50;100572.06;8603078;33;20255;-71
2021/01/05 21:07:06;;;;;;;9.35;5.35;;;;;;;5.55;82.59;100568.47;8603605;33;20181;-71
2021/01/05 21:12:08;;;;;;;14.05;5.47;;;;;;;5.52;82.51;100568.59;8601618;33;20975;-72
2021/01/05 21:17:11;;;;;;;11.13;5.57;;;;;;;5.50;82.49;100571.31;8603094;33;20193;-71
2021/01/05 21:22:14;;;;;;;13.60;6.17;;;;;;;5.45;82.59;100570.63;8601745;33;20907;-70
2021/01/05 21:27:16;;;;;;;14.33;6.07;;;;;;;5.55;82.48;100568.47;8570605;33;20192;-71
2021/01/05 21:32:19;;;;;;;11.20;5.80;;;;;;;5.57;82.53;100559.53;8600774;33;20180;-72
2021/01/05 21:37:25;;;;;;;11.45;5.93;;;;;;;5.58;82.50;100560.38;8602612;33;20161;-72
2021/01/05 21:42:28;;;;;;;9.70;5.30;;;;;;;5.57;82.70;100564.81;8602551;33;20134;-72
2021/01/05 21:47:30;;;;;;;10.98;5.72;;;;;;;5.60;82.33;100565.63;8578921;33;20268;-71
2021/01/05 21:52:34;;;;;;;10.83;5.87;;;;;;;5.60;82.51;100563.84;8602562;33;20192;-71
2021/01/05 21:57:36;;;;;;;11.68;6.00;;;;;;;5.61;82.37;100565.53;8601620;33;20208;-71
2021/01/05 22:02:39;;;;;;;11.27;6.38;;;;;;;5.57;82.41;100562.19;8578133;33;20137;-71
2021/01/05 22:07:42;;;;;;;8.82;5.18;;;;;;;5.56;82.51;100560.44;8602742;33;20138;-71
2021/01/05 22:12:45;;;;;;;9.02;5.07;;;;;;;5.61;82.43;100560.25;8601748;33;20255;-71
2021/01/05 22:17:47;;;;;;;10.80;5.25;;;;;;;5.46;81.91;100555.63;8599892;33;20161;-71
2021/01/05 22:22:51;;;;;;;9.68;4.80;;;;;;;5.51;82.14;100550.97;8600805;33;20331;-71
2021/01/05 22:27:55;;;;;;;9.35;5.05;;;;;;;5.54;81.91;100548.22;8600600;33;20231;-73
2021/01/05 22:32:58;;;;;;;9.30;4.20;;;;;;;5.50;82.06;100543.94;8601613;33;20178;-70
2021/01/05 22:38:03;;;;;;;7.38;4.47;;;;;;;5.51;82.04;100546.53;8600167;33;21528;-73
2021/01/05 22:43:12;;;;;;;13.93;6.05;;;;;;;5.51;81.79;100553.59;8598844;33;21113;-73
2021/01/05 22:48:14;;;;;;;10.07;5.45;;;;;;;5.51;81.88;100543.91;8593032;33;20800;-73
2021/01/05 22:53:18;;;;;;;10.43;5.55;;;;;;;5.51;81.77;100550.97;8599406;33;20732;-73
2021/01/05 22:58:24;;;;;;;8.73;4.47;;;;;;;5.46;81.85;100545.03;8600533;33;20243;-73
2021/01/05 23:03:28;;;;;;;7.60;4.80;;;;;;;5.47;81.75;100544.94;8600667;33;20272;-73
2021/01/05 23:08:35;;;;;;;7.73;4.87;;;;;;;5.45;81.97;100540.63;8600856;33;20490;-73
2021/01/05 23:13:40;;;;;;;8.00;4.60;;;;;;;5.44;81.84;100547.72;8575923;33;22275;-73
2021/01/05 23:18:44;;;;;;;10.23;4.78;;;;;;;5.46;81.77;100545.03;8601222;33;21050;-73
2021/01/05 23:23:47;;;;;;;9.88;4.90;;;;;;;5.45;81.75;100549.44;8600428;33;20184;-73
2021/01/05 23:28:51;;;;;;;8.90;5.03;;;;;;;5.44;81.85;100538.91;8600099;33;20196;-72
2021/01/05 23:33:53;;;;;;;10.67;5.20;;;;;;;5.46;81.92;100547.66;8599978;33;20682;-73
2021/01/05 23:38:57;;;;;;;9.10;4.97;;;;;;;5.46;82.02;100548.53;8600362;33;20913;-73